sensor_id;sensor_type;location;lat;lon;timestamp;P1;durP1;ratioP1;P2;durP2;ratioP2
11039;SDS011;5573;49.592;8.662;2024-02-15T00:00:03;70.00;;;66.35;;
11039;SDS011;5573;49.592;8.662;2024-02-15T00:02:34;68.68;;;65.07;;
11039;SDS011;5573;49.592;8.662;2024-02-15T00:05:02;67.13;;;63.58;;
11039;SDS011;5573;49.592;8.662;2024-02-15T00:07:30;66.47;;;62.97;;
11039;SDS011;5573;49.592;8.662;2024-02-15T00:09:57;66.50;;;62.97;;
11039;SDS011;5573;49.592;8.662;2024-02-15T00:12:27;70.00;;;66.30;;
11039;SDS011;5573;49.592;8.662;2024-02-15T00:14:54;67.13;;;63.55;;
11039;SDS011;5573;49.592;8.662;2024-02-15T00:17:27;68.15;;;64.57;;
11039;SDS011;5573;49.592;8.662;2024-02-15T00:19:55;67.70;;;64.20;;
11039;SDS011;5573;49.592;8.662;2024-02-15T00:22:22;61.65;;;58.40;;
11039;SDS011;5573;49.592;8.662;2024-02-15T00:24:50;64.50;;;61.17;;
11039;SDS011;5573;49.592;8.662;2024-02-15T00:27:18;68.90;;;65.28;;
11039;SDS011;5573;49.592;8.662;2024-02-15T00:29:46;61.67;;;58.00;;
11039;SDS011;5573;49.592;8.662;2024-02-15T00:32:14;64.55;;;60.95;;
11039;SDS011;5573;49.592;8.662;2024-02-15T00:34:43;63.03;;;59.70;;
11039;SDS011;5573;49.592;8.662;2024-02-15T00:37:12;65.10;;;61.70;;
11039;SDS011;5573;49.592;8.662;2024-02-15T00:39:39;62.97;;;59.40;;
11039;SDS011;5573;49.592;8.662;2024-02-15T00:42:07;63.20;;;59.95;;
11039;SDS011;5573;49.592;8.662;2024-02-15T00:44:35;61.95;;;58.75;;
11039;SDS011;5573;49.592;8.662;2024-02-15T00:47:03;64.05;;;60.30;;
11039;SDS011;5573;49.592;8.662;2024-02-15T00:49:31;62.00;;;58.67;;
11039;SDS011;5573;49.592;8.662;2024-02-15T00:52:01;69.57;;;65.93;;
11039;SDS011;5573;49.592;8.662;2024-02-15T00:54:29;63.55;;;60.20;;
11039;SDS011;5573;49.592;8.662;2024-02-15T00:56:56;64.55;;;61.13;;
11039;SDS011;5573;49.592;8.662;2024-02-15T00:59:24;68.90;;;65.25;;
11039;SDS011;5573;49.592;8.662;2024-02-15T01:01:51;67.18;;;63.65;;
11039;SDS011;5573;49.592;8.662;2024-02-15T01:04:19;60.08;;;56.88;;
11039;SDS011;5573;49.592;8.662;2024-02-15T01:06:47;66.18;;;62.70;;
11039;SDS011;5573;49.592;8.662;2024-02-15T01:09:16;63.30;;;59.95;;
11039;SDS011;5573;49.592;8.662;2024-02-15T01:11:44;62.63;;;59.28;;
11039;SDS011;5573;49.592;8.662;2024-02-15T01:14:12;64.40;;;61.00;;
11039;SDS011;5573;49.592;8.662;2024-02-15T01:16:40;63.63;;;60.10;;
11039;SDS011;5573;49.592;8.662;2024-02-15T01:19:08;61.17;;;57.97;;
11039;SDS011;5573;49.592;8.662;2024-02-15T01:21:36;61.40;;;58.20;;
11039;SDS011;5573;49.592;8.662;2024-02-15T01:24:04;63.53;;;60.17;;
11039;SDS011;5573;49.592;8.662;2024-02-15T01:26:34;60.17;;;57.03;;
11039;SDS011;5573;49.592;8.662;2024-02-15T01:29:02;61.50;;;58.20;;
11039;SDS011;5573;49.592;8.662;2024-02-15T01:31:30;56.60;;;53.50;;
11039;SDS011;5573;49.592;8.662;2024-02-15T01:33:57;62.08;;;58.83;;
11039;SDS011;5573;49.592;8.662;2024-02-15T01:36:25;68.88;;;65.30;;
11039;SDS011;5573;49.592;8.662;2024-02-15T01:38:53;62.30;;;59.08;;
11039;SDS011;5573;49.592;8.662;2024-02-15T01:41:20;67.90;;;64.30;;
11039;SDS011;5573;49.592;8.662;2024-02-15T01:43:50;66.93;;;63.47;;
11039;SDS011;5573;49.592;8.662;2024-02-15T01:46:18;64.35;;;61.00;;
11039;SDS011;5573;49.592;8.662;2024-02-15T01:48:47;65.18;;;61.75;;
11039;SDS011;5573;49.592;8.662;2024-02-15T01:51:16;66.10;;;62.65;;
11039;SDS011;5573;49.592;8.662;2024-02-15T01:53:44;67.75;;;64.20;;
11039;SDS011;5573;49.592;8.662;2024-02-15T01:56:13;73.22;;;69.45;;
11039;SDS011;5573;49.592;8.662;2024-02-15T01:58:41;76.43;;;72.47;;
11039;SDS011;5573;49.592;8.662;2024-02-15T02:01:11;72.20;;;68.45;;
11039;SDS011;5573;49.592;8.662;2024-02-15T02:03:38;78.22;;;74.07;;
11039;SDS011;5573;49.592;8.662;2024-02-15T02:06:06;80.10;;;75.90;;
11039;SDS011;5573;49.592;8.662;2024-02-15T02:08:35;79.00;;;74.80;;
11039;SDS011;5573;49.592;8.662;2024-02-15T02:11:03;83.50;;;79.15;;
11039;SDS011;5573;49.592;8.662;2024-02-15T02:13:30;83.68;;;79.35;;
11039;SDS011;5573;49.592;8.662;2024-02-15T02:15:59;85.90;;;81.40;;
11039;SDS011;5573;49.592;8.662;2024-02-15T02:18:28;82.18;;;77.88;;
11039;SDS011;5573;49.592;8.662;2024-02-15T02:20:57;85.47;;;81.07;;
11039;SDS011;5573;49.592;8.662;2024-02-15T02:23:25;95.78;;;90.85;;
11039;SDS011;5573;49.592;8.662;2024-02-15T02:25:54;88.90;;;84.30;;
11039;SDS011;5573;49.592;8.662;2024-02-15T02:28:22;87.13;;;82.68;;
11039;SDS011;5573;49.592;8.662;2024-02-15T02:30:50;84.38;;;80.03;;
11039;SDS011;5573;49.592;8.662;2024-02-15T02:33:18;90.90;;;86.07;;
11039;SDS011;5573;49.592;8.662;2024-02-15T02:35:49;89.55;;;84.97;;
11039;SDS011;5573;49.592;8.662;2024-02-15T02:38:17;86.45;;;82.00;;
11039;SDS011;5573;49.592;8.662;2024-02-15T02:40:44;85.60;;;81.13;;
11039;SDS011;5573;49.592;8.662;2024-02-15T02:43:14;87.25;;;82.72;;
11039;SDS011;5573;49.592;8.662;2024-02-15T02:45:41;92.60;;;87.85;;
11039;SDS011;5573;49.592;8.662;2024-02-15T02:48:09;87.63;;;83.13;;
11039;SDS011;5573;49.592;8.662;2024-02-15T02:50:37;87.30;;;82.82;;
11039;SDS011;5573;49.592;8.662;2024-02-15T02:53:05;88.10;;;83.55;;
11039;SDS011;5573;49.592;8.662;2024-02-15T02:55:32;90.00;;;85.40;;
11039;SDS011;5573;49.592;8.662;2024-02-15T02:58:00;88.97;;;84.22;;
11039;SDS011;5573;49.592;8.662;2024-02-15T03:00:30;82.55;;;78.30;;
11039;SDS011;5573;49.592;8.662;2024-02-15T03:02:58;96.43;;;91.40;;
11039;SDS011;5573;49.592;8.662;2024-02-15T03:05:26;88.70;;;84.13;;
11039;SDS011;5573;49.592;8.662;2024-02-15T03:07:53;86.53;;;82.03;;
11039;SDS011;5573;49.592;8.662;2024-02-15T03:10:21;84.45;;;80.05;;
11039;SDS011;5573;49.592;8.662;2024-02-15T03:12:50;80.95;;;76.63;;
11039;SDS011;5573;49.592;8.662;2024-02-15T03:15:19;77.95;;;73.93;;
11039;SDS011;5573;49.592;8.662;2024-02-15T03:17:48;81.32;;;77.15;;
11039;SDS011;5573;49.592;8.662;2024-02-15T03:20:16;80.57;;;76.35;;
11039;SDS011;5573;49.592;8.662;2024-02-15T03:22:53;73.03;;;69.28;;
11039;SDS011;5573;49.592;8.662;2024-02-15T03:25:21;71.30;;;67.57;;
11039;SDS011;5573;49.592;8.662;2024-02-15T03:27:50;65.65;;;62.17;;
11039;SDS011;5573;49.592;8.662;2024-02-15T03:30:19;67.20;;;63.72;;
11039;SDS011;5573;49.592;8.662;2024-02-15T03:32:48;70.50;;;66.85;;
11039;SDS011;5573;49.592;8.662;2024-02-15T03:35:18;66.28;;;62.75;;
11039;SDS011;5573;49.592;8.662;2024-02-15T03:37:46;62.20;;;58.97;;
11039;SDS011;5573;49.592;8.662;2024-02-15T03:40:13;64.20;;;60.85;;
11039;SDS011;5573;49.592;8.662;2024-02-15T03:42:41;58.55;;;55.45;;
11039;SDS011;5573;49.592;8.662;2024-02-15T03:45:09;65.28;;;61.88;;
11039;SDS011;5573;49.592;8.662;2024-02-15T03:47:37;57.47;;;54.45;;
11039;SDS011;5573;49.592;8.662;2024-02-15T03:50:07;62.25;;;58.92;;
11039;SDS011;5573;49.592;8.662;2024-02-15T03:52:36;61.90;;;58.65;;
11039;SDS011;5573;49.592;8.662;2024-02-15T03:55:04;64.03;;;60.65;;
11039;SDS011;5573;49.592;8.662;2024-02-15T03:57:34;59.33;;;56.17;;
11039;SDS011;5573;49.592;8.662;2024-02-15T04:00:01;59.70;;;56.60;;
11039;SDS011;5573;49.592;8.662;2024-02-15T04:02:35;63.80;;;60.50;;
11039;SDS011;5573;49.592;8.662;2024-02-15T04:05:02;57.42;;;54.47;;
11039;SDS011;5573;49.592;8.662;2024-02-15T04:07:32;61.33;;;58.15;;
11039;SDS011;5573;49.592;8.662;2024-02-15T04:10:00;60.40;;;57.25;;
11039;SDS011;5573;49.592;8.662;2024-02-15T04:12:28;55.60;;;52.72;;
11039;SDS011;5573;49.592;8.662;2024-02-15T04:14:55;56.35;;;53.35;;
11039;SDS011;5573;49.592;8.662;2024-02-15T04:17:26;56.88;;;53.90;;
11039;SDS011;5573;49.592;8.662;2024-02-15T04:19:56;59.47;;;56.38;;
11039;SDS011;5573;49.592;8.662;2024-02-15T04:22:24;53.58;;;50.75;;
11039;SDS011;5573;49.592;8.662;2024-02-15T04:24:53;58.22;;;55.20;;
11039;SDS011;5573;49.592;8.662;2024-02-15T04:27:21;57.83;;;54.83;;
11039;SDS011;5573;49.592;8.662;2024-02-15T04:29:48;57.53;;;54.55;;
11039;SDS011;5573;49.592;8.662;2024-02-15T04:32:17;55.92;;;53.03;;
11039;SDS011;5573;49.592;8.662;2024-02-15T04:34:45;57.10;;;54.15;;
11039;SDS011;5573;49.592;8.662;2024-02-15T04:37:13;59.03;;;55.95;;
11039;SDS011;5573;49.592;8.662;2024-02-15T04:39:43;51.97;;;49.28;;
11039;SDS011;5573;49.592;8.662;2024-02-15T04:42:11;57.55;;;54.53;;
11039;SDS011;5573;49.592;8.662;2024-02-15T04:44:39;56.75;;;53.80;;
11039;SDS011;5573;49.592;8.662;2024-02-15T04:47:07;57.20;;;54.17;;
11039;SDS011;5573;49.592;8.662;2024-02-15T04:49:35;58.28;;;55.13;;
11039;SDS011;5573;49.592;8.662;2024-02-15T04:52:05;59.72;;;56.58;;
11039;SDS011;5573;49.592;8.662;2024-02-15T04:54:32;59.60;;;56.45;;
11039;SDS011;5573;49.592;8.662;2024-02-15T04:57:00;59.10;;;55.92;;
11039;SDS011;5573;49.592;8.662;2024-02-15T04:59:29;58.45;;;55.40;;
11039;SDS011;5573;49.592;8.662;2024-02-15T05:01:57;59.33;;;56.20;;
11039;SDS011;5573;49.592;8.662;2024-02-15T05:04:25;59.17;;;55.97;;
11039;SDS011;5573;49.592;8.662;2024-02-15T05:06:53;61.40;;;58.20;;
11039;SDS011;5573;49.592;8.662;2024-02-15T05:09:22;58.50;;;55.42;;
11039;SDS011;5573;49.592;8.662;2024-02-15T05:11:50;59.35;;;56.22;;
11039;SDS011;5573;49.592;8.662;2024-02-15T05:14:19;58.83;;;55.78;;
11039;SDS011;5573;49.592;8.662;2024-02-15T05:16:49;56.47;;;53.50;;
11039;SDS011;5573;49.592;8.662;2024-02-15T05:19:17;51.45;;;48.75;;
11039;SDS011;5573;49.592;8.662;2024-02-15T05:21:45;61.38;;;58.17;;
11039;SDS011;5573;49.592;8.662;2024-02-15T05:24:14;57.22;;;54.25;;
11039;SDS011;5573;49.592;8.662;2024-02-15T05:26:43;60.13;;;56.92;;
11039;SDS011;5573;49.592;8.662;2024-02-15T05:29:13;60.38;;;57.25;;
11039;SDS011;5573;49.592;8.662;2024-02-15T05:31:41;58.42;;;55.38;;
11039;SDS011;5573;49.592;8.662;2024-02-15T05:34:10;55.60;;;52.72;;
11039;SDS011;5573;49.592;8.662;2024-02-15T05:36:39;56.88;;;53.90;;
11039;SDS011;5573;49.592;8.662;2024-02-15T05:39:07;57.50;;;54.08;;
11039;SDS011;5573;49.592;8.662;2024-02-15T05:41:38;57.05;;;54.05;;
11039;SDS011;5573;49.592;8.662;2024-02-15T05:44:06;54.85;;;52.03;;
11039;SDS011;5573;49.592;8.662;2024-02-15T05:46:34;58.63;;;55.45;;
11039;SDS011;5573;49.592;8.662;2024-02-15T05:49:03;54.92;;;52.03;;
11039;SDS011;5573;49.592;8.662;2024-02-15T05:51:33;59.08;;;55.97;;
11039;SDS011;5573;49.592;8.662;2024-02-15T05:54:01;60.35;;;57.22;;
11039;SDS011;5573;49.592;8.662;2024-02-15T05:56:29;55.97;;;53.05;;
11039;SDS011;5573;49.592;8.662;2024-02-15T05:58:57;53.25;;;50.47;;
11039;SDS011;5573;49.592;8.662;2024-02-15T06:01:25;58.50;;;55.45;;
11039;SDS011;5573;49.592;8.662;2024-02-15T06:03:53;53.72;;;50.92;;
11039;SDS011;5573;49.592;8.662;2024-02-15T06:06:22;56.92;;;53.95;;
11039;SDS011;5573;49.592;8.662;2024-02-15T06:08:54;54.75;;;51.88;;
11039;SDS011;5573;49.592;8.662;2024-02-15T06:11:26;60.50;;;57.30;;
11039;SDS011;5573;49.592;8.662;2024-02-15T06:13:54;63.78;;;60.38;;
11039;SDS011;5573;49.592;8.662;2024-02-15T06:16:21;63.35;;;60.03;;
11039;SDS011;5573;49.592;8.662;2024-02-15T06:18:49;61.45;;;58.25;;
11039;SDS011;5573;49.592;8.662;2024-02-15T06:21:17;62.85;;;59.63;;
11039;SDS011;5573;49.592;8.662;2024-02-15T06:23:45;56.50;;;53.53;;
11039;SDS011;5573;49.592;8.662;2024-02-15T06:26:16;59.10;;;56.05;;
11039;SDS011;5573;49.592;8.662;2024-02-15T06:28:43;64.72;;;61.35;;
11039;SDS011;5573;49.592;8.662;2024-02-15T06:31:29;64.80;;;61.45;;
11039;SDS011;5573;49.592;8.662;2024-02-15T06:34:16;71.45;;;67.78;;
11039;SDS011;5573;49.592;8.662;2024-02-15T06:37:01;74.45;;;70.63;;
11039;SDS011;5573;49.592;8.662;2024-02-15T06:39:46;73.20;;;69.45;;
11039;SDS011;5573;49.592;8.662;2024-02-15T06:42:16;77.20;;;73.22;;
11039;SDS011;5573;49.592;8.662;2024-02-15T06:44:45;75.90;;;72.00;;
11039;SDS011;5573;49.592;8.662;2024-02-15T06:47:13;87.47;;;83.00;;
11039;SDS011;5573;49.592;8.662;2024-02-15T06:49:45;79.75;;;75.68;;
11039;SDS011;5573;49.592;8.662;2024-02-15T06:52:13;82.35;;;78.07;;
11039;SDS011;5573;49.592;8.662;2024-02-15T06:54:40;83.72;;;79.43;;
11039;SDS011;5573;49.592;8.662;2024-02-15T06:57:09;80.15;;;75.95;;
11039;SDS011;5573;49.592;8.662;2024-02-15T06:59:38;86.35;;;81.93;;
11039;SDS011;5573;49.592;8.662;2024-02-15T07:02:06;81.70;;;77.43;;
11039;SDS011;5573;49.592;8.662;2024-02-15T07:04:35;80.82;;;76.57;;
11039;SDS011;5573;49.592;8.662;2024-02-15T07:07:03;84.03;;;79.70;;
11039;SDS011;5573;49.592;8.662;2024-02-15T07:09:31;79.10;;;74.97;;
11039;SDS011;5573;49.592;8.662;2024-02-15T07:11:59;87.38;;;82.88;;
11039;SDS011;5573;49.592;8.662;2024-02-15T07:14:26;77.75;;;73.80;;
11039;SDS011;5573;49.592;8.662;2024-02-15T07:16:56;72.22;;;68.47;;
11039;SDS011;5573;49.592;8.662;2024-02-15T07:19:25;70.07;;;66.47;;
11039;SDS011;5573;49.592;8.662;2024-02-15T07:21:53;68.82;;;65.18;;
11039;SDS011;5573;49.592;8.662;2024-02-15T07:24:23;65.88;;;62.42;;
11039;SDS011;5573;49.592;8.662;2024-02-15T07:26:54;69.63;;;65.95;;
11039;SDS011;5573;49.592;8.662;2024-02-15T07:29:22;65.63;;;62.22;;
11039;SDS011;5573;49.592;8.662;2024-02-15T07:31:52;62.58;;;59.30;;
11039;SDS011;5573;49.592;8.662;2024-02-15T07:34:21;60.90;;;57.63;;
11039;SDS011;5573;49.592;8.662;2024-02-15T07:36:50;56.83;;;53.83;;
11039;SDS011;5573;49.592;8.662;2024-02-15T07:39:18;57.47;;;54.47;;
11039;SDS011;5573;49.592;8.662;2024-02-15T07:41:50;58.13;;;55.10;;
11039;SDS011;5573;49.592;8.662;2024-02-15T07:44:18;53.08;;;50.30;;
11039;SDS011;5573;49.592;8.662;2024-02-15T07:46:46;54.80;;;51.60;;
11039;SDS011;5573;49.592;8.662;2024-02-15T07:49:13;47.90;;;45.40;;
11039;SDS011;5573;49.592;8.662;2024-02-15T07:51:44;51.42;;;48.72;;
11039;SDS011;5573;49.592;8.662;2024-02-15T07:54:12;49.42;;;46.88;;
11039;SDS011;5573;49.592;8.662;2024-02-15T07:56:39;48.72;;;46.10;;
11039;SDS011;5573;49.592;8.662;2024-02-15T07:59:07;48.72;;;46.13;;
11039;SDS011;5573;49.592;8.662;2024-02-15T08:01:35;49.38;;;46.80;;
11039;SDS011;5573;49.592;8.662;2024-02-15T08:04:02;47.45;;;44.97;;
11039;SDS011;5573;49.592;8.662;2024-02-15T08:06:30;47.15;;;44.67;;
11039;SDS011;5573;49.592;8.662;2024-02-15T08:09:01;44.17;;;41.85;;
11039;SDS011;5573;49.592;8.662;2024-02-15T08:11:31;43.97;;;41.67;;
11039;SDS011;5573;49.592;8.662;2024-02-15T08:13:59;43.80;;;41.53;;
11039;SDS011;5573;49.592;8.662;2024-02-15T08:16:26;46.08;;;43.60;;
11039;SDS011;5573;49.592;8.662;2024-02-15T08:18:54;42.65;;;40.33;;
11039;SDS011;5573;49.592;8.662;2024-02-15T08:21:26;42.67;;;40.42;;
11039;SDS011;5573;49.592;8.662;2024-02-15T08:23:56;38.42;;;36.35;;
11039;SDS011;5573;49.592;8.662;2024-02-15T08:26:26;40.67;;;38.55;;
11039;SDS011;5573;49.592;8.662;2024-02-15T08:28:56;39.92;;;37.80;;
11039;SDS011;5573;49.592;8.662;2024-02-15T08:31:23;40.00;;;37.90;;
11039;SDS011;5573;49.592;8.662;2024-02-15T08:33:51;40.63;;;38.47;;
11039;SDS011;5573;49.592;8.662;2024-02-15T08:36:19;38.97;;;36.95;;
11039;SDS011;5573;49.592;8.662;2024-02-15T08:38:48;42.47;;;40.25;;
11039;SDS011;5573;49.592;8.662;2024-02-15T08:41:16;43.75;;;41.45;;
11039;SDS011;5573;49.592;8.662;2024-02-15T08:43:47;42.20;;;40.00;;
11039;SDS011;5573;49.592;8.662;2024-02-15T08:46:15;46.97;;;44.53;;
11039;SDS011;5573;49.592;8.662;2024-02-15T08:48:42;42.33;;;40.10;;
11039;SDS011;5573;49.592;8.662;2024-02-15T08:51:11;47.47;;;44.72;;
11039;SDS011;5573;49.592;8.662;2024-02-15T08:53:39;42.47;;;40.17;;
11039;SDS011;5573;49.592;8.662;2024-02-15T08:56:06;44.72;;;42.35;;
11039;SDS011;5573;49.592;8.662;2024-02-15T08:58:35;45.35;;;42.95;;
11039;SDS011;5573;49.592;8.662;2024-02-15T09:01:06;51.88;;;49.08;;
11039;SDS011;5573;49.592;8.662;2024-02-15T09:03:35;54.58;;;51.67;;
11039;SDS011;5573;49.592;8.662;2024-02-15T09:06:03;56.13;;;53.15;;
11039;SDS011;5573;49.592;8.662;2024-02-15T09:08:31;54.00;;;51.15;;
11039;SDS011;5573;49.592;8.662;2024-02-15T09:10:59;55.05;;;52.15;;
11039;SDS011;5573;49.592;8.662;2024-02-15T09:13:29;57.03;;;54.03;;
11039;SDS011;5573;49.592;8.662;2024-02-15T09:15:56;57.90;;;54.80;;
11039;SDS011;5573;49.592;8.662;2024-02-15T09:18:25;58.42;;;55.17;;
11039;SDS011;5573;49.592;8.662;2024-02-15T09:20:53;65.97;;;62.53;;
11039;SDS011;5573;49.592;8.662;2024-02-15T09:23:22;64.80;;;61.40;;
11039;SDS011;5573;49.592;8.662;2024-02-15T09:25:50;70.82;;;67.00;;
11039;SDS011;5573;49.592;8.662;2024-02-15T09:28:19;78.03;;;73.88;;
11039;SDS011;5573;49.592;8.662;2024-02-15T09:30:48;80.63;;;76.30;;
11039;SDS011;5573;49.592;8.662;2024-02-15T09:33:18;94.53;;;89.50;;
11039;SDS011;5573;49.592;8.662;2024-02-15T09:35:47;89.50;;;84.53;;
11039;SDS011;5573;49.592;8.662;2024-02-15T09:38:14;96.68;;;91.70;;
11039;SDS011;5573;49.592;8.662;2024-02-15T09:40:43;100.47;;;95.22;;
11039;SDS011;5573;49.592;8.662;2024-02-15T09:43:11;96.03;;;91.07;;
11039;SDS011;5573;49.592;8.662;2024-02-15T09:45:40;105.53;;;100.07;;
11039;SDS011;5573;49.592;8.662;2024-02-15T09:48:07;110.07;;;104.45;;
11039;SDS011;5573;49.592;8.662;2024-02-15T09:50:41;106.43;;;100.93;;
11039;SDS011;5573;49.592;8.662;2024-02-15T09:53:11;111.47;;;105.68;;
11039;SDS011;5573;49.592;8.662;2024-02-15T09:55:39;107.88;;;102.28;;
11039;SDS011;5573;49.592;8.662;2024-02-15T09:58:07;114.07;;;108.05;;
11039;SDS011;5573;49.592;8.662;2024-02-15T10:00:35;113.85;;;107.93;;
11039;SDS011;5573;49.592;8.662;2024-02-15T10:03:05;110.45;;;104.82;;
11039;SDS011;5573;49.592;8.662;2024-02-15T10:05:33;115.82;;;109.82;;
11039;SDS011;5573;49.592;8.662;2024-02-15T10:08:01;110.88;;;105.20;;
11039;SDS011;5573;49.592;8.662;2024-02-15T10:10:31;104.05;;;98.57;;
11039;SDS011;5573;49.592;8.662;2024-02-15T10:13:00;114.68;;;108.80;;
11039;SDS011;5573;49.592;8.662;2024-02-15T10:15:28;99.72;;;94.65;;
11039;SDS011;5573;49.592;8.662;2024-02-15T10:18:00;107.90;;;102.40;;
11039;SDS011;5573;49.592;8.662;2024-02-15T10:20:28;102.00;;;96.78;;
11039;SDS011;5573;49.592;8.662;2024-02-15T10:23:08;100.25;;;95.18;;
11039;SDS011;5573;49.592;8.662;2024-02-15T10:25:38;102.35;;;97.13;;
11039;SDS011;5573;49.592;8.662;2024-02-15T10:28:06;91.63;;;86.93;;
11039;SDS011;5573;49.592;8.662;2024-02-15T10:30:34;94.82;;;90.07;;
11039;SDS011;5573;49.592;8.662;2024-02-15T10:33:02;105.47;;;100.10;;
11039;SDS011;5573;49.592;8.662;2024-02-15T10:35:30;96.22;;;91.38;;
11039;SDS011;5573;49.592;8.662;2024-02-15T10:38:07;94.88;;;90.10;;
11039;SDS011;5573;49.592;8.662;2024-02-15T10:40:35;99.13;;;94.10;;
11039;SDS011;5573;49.592;8.662;2024-02-15T10:43:05;99.07;;;94.00;;
11039;SDS011;5573;49.592;8.662;2024-02-15T10:45:34;101.82;;;96.60;;
11039;SDS011;5573;49.592;8.662;2024-02-15T10:48:05;90.30;;;85.72;;
11039;SDS011;5573;49.592;8.662;2024-02-15T10:50:33;92.90;;;88.13;;
11039;SDS011;5573;49.592;8.662;2024-02-15T10:53:01;95.75;;;90.88;;
11039;SDS011;5573;49.592;8.662;2024-02-15T10:55:35;104.82;;;99.43;;
11039;SDS011;5573;49.592;8.662;2024-02-15T10:58:06;98.32;;;93.32;;
11039;SDS011;5573;49.592;8.662;2024-02-15T11:00:34;105.35;;;100.00;;
11039;SDS011;5573;49.592;8.662;2024-02-15T11:03:04;93.68;;;88.88;;
11039;SDS011;5573;49.592;8.662;2024-02-15T11:05:32;97.38;;;92.43;;
11039;SDS011;5573;49.592;8.662;2024-02-15T11:08:03;99.47;;;94.45;;
11039;SDS011;5573;49.592;8.662;2024-02-15T11:10:31;104.25;;;99.00;;
11039;SDS011;5573;49.592;8.662;2024-02-15T11:12:59;97.93;;;92.93;;
11039;SDS011;5573;49.592;8.662;2024-02-15T11:15:41;98.88;;;93.80;;
11039;SDS011;5573;49.592;8.662;2024-02-15T11:18:12;94.38;;;89.60;;
11039;SDS011;5573;49.592;8.662;2024-02-15T11:20:45;96.93;;;92.00;;
11039;SDS011;5573;49.592;8.662;2024-02-15T11:23:23;90.32;;;85.72;;
11039;SDS011;5573;49.592;8.662;2024-02-15T11:26:02;91.05;;;86.45;;
11039;SDS011;5573;49.592;8.662;2024-02-15T11:28:38;95.78;;;90.90;;
11039;SDS011;5573;49.592;8.662;2024-02-15T11:31:08;100.20;;;95.07;;
11039;SDS011;5573;49.592;8.662;2024-02-15T11:33:36;97.78;;;92.72;;
11039;SDS011;5573;49.592;8.662;2024-02-15T11:36:05;96.90;;;91.90;;
11039;SDS011;5573;49.592;8.662;2024-02-15T11:38:34;96.93;;;91.97;;
11039;SDS011;5573;49.592;8.662;2024-02-15T11:41:04;100.68;;;95.57;;
11039;SDS011;5573;49.592;8.662;2024-02-15T11:43:46;105.65;;;100.32;;
11039;SDS011;5573;49.592;8.662;2024-02-15T11:46:18;109.22;;;103.63;;
11039;SDS011;5573;49.592;8.662;2024-02-15T11:48:45;106.40;;;100.90;;
11039;SDS011;5573;49.592;8.662;2024-02-15T11:51:24;95.47;;;90.57;;
11039;SDS011;5573;49.592;8.662;2024-02-15T11:54:02;98.95;;;93.85;;
11039;SDS011;5573;49.592;8.662;2024-02-15T11:56:32;99.22;;;94.18;;
11039;SDS011;5573;49.592;8.662;2024-02-15T11:59:07;108.13;;;102.63;;
11039;SDS011;5573;49.592;8.662;2024-02-15T12:01:39;108.20;;;102.63;;
11039;SDS011;5573;49.592;8.662;2024-02-15T12:04:25;103.97;;;98.70;;
11039;SDS011;5573;49.592;8.662;2024-02-15T12:07:10;102.05;;;96.75;;
11039;SDS011;5573;49.592;8.662;2024-02-15T12:09:58;102.15;;;96.95;;
11039;SDS011;5573;49.592;8.662;2024-02-15T12:12:50;104.97;;;99.53;;
11039;SDS011;5573;49.592;8.662;2024-02-15T12:15:35;104.60;;;99.28;;
11039;SDS011;5573;49.592;8.662;2024-02-15T12:18:22;104.85;;;99.50;;
11039;SDS011;5573;49.592;8.662;2024-02-15T12:21:10;102.45;;;97.20;;
11039;SDS011;5573;49.592;8.662;2024-02-15T12:23:38;101.97;;;96.68;;
11039;SDS011;5573;49.592;8.662;2024-02-15T12:26:08;117.72;;;111.55;;
11039;SDS011;5573;49.592;8.662;2024-02-15T12:28:35;105.22;;;99.82;;
11039;SDS011;5573;49.592;8.662;2024-02-15T12:31:08;113.43;;;107.60;;
11039;SDS011;5573;49.592;8.662;2024-02-15T12:33:37;112.95;;;107.13;;
11039;SDS011;5573;49.592;8.662;2024-02-15T12:36:05;109.07;;;103.45;;
11039;SDS011;5573;49.592;8.662;2024-02-15T12:38:33;107.63;;;102.07;;
11039;SDS011;5573;49.592;8.662;2024-02-15T12:41:16;102.80;;;97.47;;
11039;SDS011;5573;49.592;8.662;2024-02-15T12:43:45;108.50;;;102.88;;
11039;SDS011;5573;49.592;8.662;2024-02-15T12:46:14;112.53;;;106.70;;
11039;SDS011;5573;49.592;8.662;2024-02-15T12:48:46;109.72;;;104.03;;
11039;SDS011;5573;49.592;8.662;2024-02-15T12:51:14;108.85;;;103.28;;
11039;SDS011;5573;49.592;8.662;2024-02-15T12:53:41;108.00;;;102.40;;
11039;SDS011;5573;49.592;8.662;2024-02-15T12:56:10;98.00;;;92.95;;
11039;SDS011;5573;49.592;8.662;2024-02-15T12:58:46;106.50;;;101.03;;
11039;SDS011;5573;49.592;8.662;2024-02-15T13:01:14;106.40;;;100.93;;
11039;SDS011;5573;49.592;8.662;2024-02-15T13:03:42;109.45;;;103.70;;
11039;SDS011;5573;49.592;8.662;2024-02-15T13:06:11;99.88;;;94.72;;
11039;SDS011;5573;49.592;8.662;2024-02-15T13:08:39;113.13;;;107.22;;
11039;SDS011;5573;49.592;8.662;2024-02-15T13:11:06;111.72;;;105.93;;
11039;SDS011;5573;49.592;8.662;2024-02-15T13:13:36;110.35;;;104.65;;
11039;SDS011;5573;49.592;8.662;2024-02-15T13:16:04;113.25;;;107.40;;
11039;SDS011;5573;49.592;8.662;2024-02-15T13:18:32;109.22;;;103.63;;
11039;SDS011;5573;49.592;8.662;2024-02-15T13:21:00;114.40;;;108.45;;
11039;SDS011;5573;49.592;8.662;2024-02-15T13:23:30;101.78;;;96.50;;
11039;SDS011;5573;49.592;8.662;2024-02-15T13:25:58;108.20;;;102.53;;
11039;SDS011;5573;49.592;8.662;2024-02-15T13:28:30;107.75;;;102.28;;
11039;SDS011;5573;49.592;8.662;2024-02-15T13:30:58;108.18;;;102.65;;
11039;SDS011;5573;49.592;8.662;2024-02-15T13:33:25;112.78;;;106.93;;
11039;SDS011;5573;49.592;8.662;2024-02-15T13:35:55;109.47;;;103.85;;
11039;SDS011;5573;49.592;8.662;2024-02-15T13:38:23;112.53;;;106.50;;
11039;SDS011;5573;49.592;8.662;2024-02-15T13:40:52;109.65;;;104.00;;
11039;SDS011;5573;49.592;8.662;2024-02-15T13:43:22;114.28;;;108.45;;
11039;SDS011;5573;49.592;8.662;2024-02-15T13:45:50;105.88;;;100.40;;
11039;SDS011;5573;49.592;8.662;2024-02-15T13:48:19;115.57;;;109.60;;
11039;SDS011;5573;49.592;8.662;2024-02-15T13:50:46;112.88;;;107.13;;
11039;SDS011;5573;49.592;8.662;2024-02-15T13:53:14;107.35;;;101.75;;
11039;SDS011;5573;49.592;8.662;2024-02-15T13:55:42;111.07;;;105.35;;
11039;SDS011;5573;49.592;8.662;2024-02-15T13:58:11;114.80;;;108.85;;
11039;SDS011;5573;49.592;8.662;2024-02-15T14:00:39;108.40;;;102.85;;
11039;SDS011;5573;49.592;8.662;2024-02-15T14:03:08;110.40;;;104.75;;
11039;SDS011;5573;49.592;8.662;2024-02-15T14:05:36;110.93;;;105.18;;
11039;SDS011;5573;49.592;8.662;2024-02-15T14:08:06;117.38;;;111.28;;
11039;SDS011;5573;49.592;8.662;2024-02-15T14:10:35;122.43;;;116.15;;
11039;SDS011;5573;49.592;8.662;2024-02-15T14:13:03;108.60;;;103.07;;
11039;SDS011;5573;49.592;8.662;2024-02-15T14:15:34;116.70;;;110.68;;
11039;SDS011;5573;49.592;8.662;2024-02-15T14:18:04;114.78;;;108.88;;
11039;SDS011;5573;49.592;8.662;2024-02-15T14:20:31;113.68;;;107.85;;
11039;SDS011;5573;49.592;8.662;2024-02-15T14:22:59;114.60;;;108.72;;
11039;SDS011;5573;49.592;8.662;2024-02-15T14:25:31;115.30;;;109.43;;
11039;SDS011;5573;49.592;8.662;2024-02-15T14:28:01;114.70;;;108.85;;
11039;SDS011;5573;49.592;8.662;2024-02-15T14:30:30;111.70;;;105.97;;
11039;SDS011;5573;49.592;8.662;2024-02-15T14:33:16;109.88;;;104.25;;
11039;SDS011;5573;49.592;8.662;2024-02-15T14:35:48;121.95;;;115.70;;
11039;SDS011;5573;49.592;8.662;2024-02-15T14:38:16;107.32;;;101.80;;
11039;SDS011;5573;49.592;8.662;2024-02-15T14:40:48;116.90;;;110.88;;